sensor_id;sensor_type;location;lat;lon;timestamp;temperature;humidity
18189;DHT22;9219;50.396;8.546;2023-07-31T00:00:55;19.00;99.90
18189;DHT22;9219;50.396;8.546;2023-07-31T00:03:24;19.00;99.90
18189;DHT22;9219;50.396;8.546;2023-07-31T00:11:10;19.10;99.90
18189;DHT22;9219;50.396;8.546;2023-07-31T00:13:38;18.80;99.90
18189;DHT22;9219;50.396;8.546;2023-07-31T00:16:05;18.90;99.90
18189;DHT22;9219;50.396;8.546;2023-07-31T00:18:32;18.90;99.90
18189;DHT22;9219;50.396;8.546;2023-07-31T00:21:00;18.90;99.90
18189;DHT22;9219;50.396;8.546;2023-07-31T00:23:28;18.80;99.90
18189;DHT22;9219;50.396;8.546;2023-07-31T00:25:55;18.80;99.90
18189;DHT22;9219;50.396;8.546;2023-07-31T00:28:24;18.80;99.90
18189;DHT22;9219;50.396;8.546;2023-07-31T00:35:56;18.70;99.90
18189;DHT22;9219;50.396;8.546;2023-07-31T00:38:23;18.90;99.90
18189;DHT22;9219;50.396;8.546;2023-07-31T00:40:50;18.90;99.90
18189;DHT22;9219;50.396;8.546;2023-07-31T00:43:18;18.90;99.90
18189;DHT22;9219;50.396;8.546;2023-07-31T00:45:45;18.80;99.90
18189;DHT22;9219;50.396;8.546;2023-07-31T00:48:13;18.70;99.90
18189;DHT22;9219;50.396;8.546;2023-07-31T00:50:41;18.50;99.90
18189;DHT22;9219;50.396;8.546;2023-07-31T00:56:24;18.60;99.90
18189;DHT22;9219;50.396;8.546;2023-07-31T00:58:52;18.80;99.90
18189;DHT22;9219;50.396;8.546;2023-07-31T01:01:22;18.70;99.90
18189;DHT22;9219;50.396;8.546;2023-07-31T01:03:51;18.70;99.90
18189;DHT22;9219;50.396;8.546;2023-07-31T01:06:29;18.70;99.90
18189;DHT22;9219;50.396;8.546;2023-07-31T01:09:02;18.60;99.90
18189;DHT22;9219;50.396;8.546;2023-07-31T01:11:33;18.60;99.90
18189;DHT22;9219;50.396;8.546;2023-07-31T01:19:01;18.50;99.90
18189;DHT22;9219;50.396;8.546;2023-07-31T01:21:48;18.30;99.90
18189;DHT22;9219;50.396;8.546;2023-07-31T01:24:23;18.30;99.90
18189;DHT22;9219;50.396;8.546;2023-07-31T01:27:06;18.50;99.90
18189;DHT22;9219;50.396;8.546;2023-07-31T01:29:38;18.70;99.90
18189;DHT22;9219;50.396;8.546;2023-07-31T01:32:09;18.90;99.90
18189;DHT22;9219;50.396;8.546;2023-07-31T01:34:38;18.80;99.90
18189;DHT22;9219;50.396;8.546;2023-07-31T01:39:59;19.00;99.90
18189;DHT22;9219;50.396;8.546;2023-07-31T01:42:26;18.80;99.90
18189;DHT22;9219;50.396;8.546;2023-07-31T01:44:53;18.60;99.90
18189;DHT22;9219;50.396;8.546;2023-07-31T01:47:21;18.70;99.90
18189;DHT22;9219;50.396;8.546;2023-07-31T01:49:49;18.50;99.90
18189;DHT22;9219;50.396;8.546;2023-07-31T01:52:17;18.50;99.90
18189;DHT22;9219;50.396;8.546;2023-07-31T01:54:47;18.40;99.90
18189;DHT22;9219;50.396;8.546;2023-07-31T02:00:11;18.40;99.90
18189;DHT22;9219;50.396;8.546;2023-07-31T02:02:39;18.40;99.90
18189;DHT22;9219;50.396;8.546;2023-07-31T02:05:07;18.50;99.90
18189;DHT22;9219;50.396;8.546;2023-07-31T02:07:34;18.70;99.90
18189;DHT22;9219;50.396;8.546;2023-07-31T02:10:02;18.50;99.90
18189;DHT22;9219;50.396;8.546;2023-07-31T02:12:32;18.70;99.90
18189;DHT22;9219;50.396;8.546;2023-07-31T02:15:00;18.50;99.90
18189;DHT22;9219;50.396;8.546;2023-07-31T02:20:38;18.40;99.90
18189;DHT22;9219;50.396;8.546;2023-07-31T02:23:05;18.60;99.90
18189;DHT22;9219;50.396;8.546;2023-07-31T02:25:33;18.70;99.90
18189;DHT22;9219;50.396;8.546;2023-07-31T02:28:00;18.80;99.90
18189;DHT22;9219;50.396;8.546;2023-07-31T02:30:27;18.80;99.90
18189;DHT22;9219;50.396;8.546;2023-07-31T02:32:55;18.80;99.90
18189;DHT22;9219;50.396;8.546;2023-07-31T02:35:22;18.60;99.90
18189;DHT22;9219;50.396;8.546;2023-07-31T02:41:36;18.70;99.90
18189;DHT22;9219;50.396;8.546;2023-07-31T02:44:04;18.70;99.90
18189;DHT22;9219;50.396;8.546;2023-07-31T02:46:32;18.60;99.90
18189;DHT22;9219;50.396;8.546;2023-07-31T02:49:00;18.60;99.90
18189;DHT22;9219;50.396;8.546;2023-07-31T02:51:27;18.50;99.90
18189;DHT22;9219;50.396;8.546;2023-07-31T02:53:55;18.80;99.90
18189;DHT22;9219;50.396;8.546;2023-07-31T02:56:24;18.60;99.90
18189;DHT22;9219;50.396;8.546;2023-07-31T03:02:25;18.70;99.90
18189;DHT22;9219;50.396;8.546;2023-07-31T03:04:53;18.70;99.90
18189;DHT22;9219;50.396;8.546;2023-07-31T03:07:20;18.50;99.90
18189;DHT22;9219;50.396;8.546;2023-07-31T03:09:48;18.50;99.90
18189;DHT22;9219;50.396;8.546;2023-07-31T03:12:15;17.70;99.90
18189;DHT22;9219;50.396;8.546;2023-07-31T03:14:42;17.50;99.90
18189;DHT22;9219;50.396;8.546;2023-07-31T03:17:10;17.50;99.90
18189;DHT22;9219;50.396;8.546;2023-07-31T03:23:39;18.10;99.90
18189;DHT22;9219;50.396;8.546;2023-07-31T03:26:08;18.30;99.90
18189;DHT22;9219;50.396;8.546;2023-07-31T03:28:35;18.40;99.90
18189;DHT22;9219;50.396;8.546;2023-07-31T03:31:05;18.50;99.90
18189;DHT22;9219;50.396;8.546;2023-07-31T03:33:34;18.70;99.90
18189;DHT22;9219;50.396;8.546;2023-07-31T03:36:02;18.70;99.90
18189;DHT22;9219;50.396;8.546;2023-07-31T03:38:29;18.60;99.90
18189;DHT22;9219;50.396;8.546;2023-07-31T03:44:36;18.70;99.90
18189;DHT22;9219;50.396;8.546;2023-07-31T03:47:04;18.50;99.90
18189;DHT22;9219;50.396;8.546;2023-07-31T03:49:31;18.40;99.90
18189;DHT22;9219;50.396;8.546;2023-07-31T03:51:59;18.30;99.90
18189;DHT22;9219;50.396;8.546;2023-07-31T03:54:29;18.60;99.90
18189;DHT22;9219;50.396;8.546;2023-07-31T03:56:56;18.60;99.90
18189;DHT22;9219;50.396;8.546;2023-07-31T03:59:23;18.60;99.90
18189;DHT22;9219;50.396;8.546;2023-07-31T04:01:52;18.60;99.90
18189;DHT22;9219;50.396;8.546;2023-07-31T04:10:03;18.50;99.90
18189;DHT22;9219;50.396;8.546;2023-07-31T04:12:31;18.50;99.90
18189;DHT22;9219;50.396;8.546;2023-07-31T04:14:58;18.50;99.90
18189;DHT22;9219;50.396;8.546;2023-07-31T04:17:25;18.50;99.90
18189;DHT22;9219;50.396;8.546;2023-07-31T04:19:53;18.50;99.90
18189;DHT22;9219;50.396;8.546;2023-07-31T04:22:20;18.50;99.90
18189;DHT22;9219;50.396;8.546;2023-07-31T04:24:50;18.60;99.90
18189;DHT22;9219;50.396;8.546;2023-07-31T04:30:00;18.50;99.90
18189;DHT22;9219;50.396;8.546;2023-07-31T04:32:28;18.40;99.90
18189;DHT22;9219;50.396;8.546;2023-07-31T04:34:56;18.40;99.90
18189;DHT22;9219;50.396;8.546;2023-07-31T04:37:23;18.50;99.90
18189;DHT22;9219;50.396;8.546;2023-07-31T04:39:51;18.50;99.90
18189;DHT22;9219;50.396;8.546;2023-07-31T04:42:18;18.40;99.90
18189;DHT22;9219;50.396;8.546;2023-07-31T04:44:45;18.30;99.90
18189;DHT22;9219;50.396;8.546;2023-07-31T04:49:57;18.20;99.90
18189;DHT22;9219;50.396;8.546;2023-07-31T04:52:25;18.20;99.90
18189;DHT22;9219;50.396;8.546;2023-07-31T04:54:52;18.30;99.90
18189;DHT22;9219;50.396;8.546;2023-07-31T04:57:20;18.30;99.90
18189;DHT22;9219;50.396;8.546;2023-07-31T04:59:47;18.40;99.90
18189;DHT22;9219;50.396;8.546;2023-07-31T05:02:17;18.50;99.90
18189;DHT22;9219;50.396;8.546;2023-07-31T05:04:44;18.60;99.90
18189;DHT22;9219;50.396;8.546;2023-07-31T05:07:13;18.70;99.90
18189;DHT22;9219;50.396;8.546;2023-07-31T05:10:56;18.70;99.90
18189;DHT22;9219;50.396;8.546;2023-07-31T05:13:24;18.60;99.90
18189;DHT22;9219;50.396;8.546;2023-07-31T05:15:51;18.50;99.90
18189;DHT22;9219;50.396;8.546;2023-07-31T05:18:19;18.40;99.90
18189;DHT22;9219;50.396;8.546;2023-07-31T05:20:47;18.40;99.90
18189;DHT22;9219;50.396;8.546;2023-07-31T05:23:14;18.50;99.90
18189;DHT22;9219;50.396;8.546;2023-07-31T05:25:42;18.50;99.90
18189;DHT22;9219;50.396;8.546;2023-07-31T05:31:39;18.50;99.90
18189;DHT22;9219;50.396;8.546;2023-07-31T05:34:08;18.50;99.90
18189;DHT22;9219;50.396;8.546;2023-07-31T05:36:35;18.30;99.90
18189;DHT22;9219;50.396;8.546;2023-07-31T05:39:03;18.10;99.90
18189;DHT22;9219;50.396;8.546;2023-07-31T05:41:42;18.20;99.90
18189;DHT22;9219;50.396;8.546;2023-07-31T05:44:11;18.20;99.90
18189;DHT22;9219;50.396;8.546;2023-07-31T05:46:40;18.30;99.90
18189;DHT22;9219;50.396;8.546;2023-07-31T05:54:08;18.50;99.90
18189;DHT22;9219;50.396;8.546;2023-07-31T05:56:37;18.50;99.90
18189;DHT22;9219;50.396;8.546;2023-07-31T05:59:05;18.60;99.90
18189;DHT22;9219;50.396;8.546;2023-07-31T06:01:33;18.80;99.90
18189;DHT22;9219;50.396;8.546;2023-07-31T06:04:01;18.70;99.90
18189;DHT22;9219;50.396;8.546;2023-07-31T06:06:29;18.60;99.90
18189;DHT22;9219;50.396;8.546;2023-07-31T06:08:57;18.60;99.90
18189;DHT22;9219;50.396;8.546;2023-07-31T06:14:54;18.60;99.90
18189;DHT22;9219;50.396;8.546;2023-07-31T06:17:21;18.30;99.90
18189;DHT22;9219;50.396;8.546;2023-07-31T06:19:48;18.40;99.90
18189;DHT22;9219;50.396;8.546;2023-07-31T06:22:16;18.60;99.90
18189;DHT22;9219;50.396;8.546;2023-07-31T06:24:46;18.50;99.90
18189;DHT22;9219;50.396;8.546;2023-07-31T06:27:23;18.50;99.90
18189;DHT22;9219;50.396;8.546;2023-07-31T06:29:51;18.40;99.90
18189;DHT22;9219;50.396;8.546;2023-07-31T06:35:01;18.60;99.90
18189;DHT22;9219;50.396;8.546;2023-07-31T06:37:28;18.80;99.90
18189;DHT22;9219;50.396;8.546;2023-07-31T06:39:55;18.80;99.90
18189;DHT22;9219;50.396;8.546;2023-07-31T06:42:23;18.80;99.90
18189;DHT22;9219;50.396;8.546;2023-07-31T06:44:50;18.80;99.90
18189;DHT22;9219;50.396;8.546;2023-07-31T06:47:18;18.70;99.90
18189;DHT22;9219;50.396;8.546;2023-07-31T06:49:46;18.90;99.90
18189;DHT22;9219;50.396;8.546;2023-07-31T06:56:06;19.00;99.90
18189;DHT22;9219;50.396;8.546;2023-07-31T06:58:34;19.00;99.90
18189;DHT22;9219;50.396;8.546;2023-07-31T07:01:01;19.00;99.90
18189;DHT22;9219;50.396;8.546;2023-07-31T07:03:29;18.90;99.90
18189;DHT22;9219;50.396;8.546;2023-07-31T07:05:57;19.00;99.90
18189;DHT22;9219;50.396;8.546;2023-07-31T07:08:25;18.90;99.90
18189;DHT22;9219;50.396;8.546;2023-07-31T07:10:53;18.70;99.90
18189;DHT22;9219;50.396;8.546;2023-07-31T07:16:52;18.60;99.90
18189;DHT22;9219;50.396;8.546;2023-07-31T07:19:19;18.90;99.90
18189;DHT22;9219;50.396;8.546;2023-07-31T07:21:47;19.00;99.90
18189;DHT22;9219;50.396;8.546;2023-07-31T07:24:14;19.20;99.90
18189;DHT22;9219;50.396;8.546;2023-07-31T07:26:42;19.00;99.90
18189;DHT22;9219;50.396;8.546;2023-07-31T07:29:09;19.00;99.90
18189;DHT22;9219;50.396;8.546;2023-07-31T07:31:37;19.10;99.90
18189;DHT22;9219;50.396;8.546;2023-07-31T07:39:05;19.00;99.90
18189;DHT22;9219;50.396;8.546;2023-07-31T07:41:33;19.00;99.90
18189;DHT22;9219;50.396;8.546;2023-07-31T07:44:00;19.10;99.90
18189;DHT22;9219;50.396;8.546;2023-07-31T07:46:28;19.30;99.90
18189;DHT22;9219;50.396;8.546;2023-07-31T07:48:56;19.40;99.90
18189;DHT22;9219;50.396;8.546;2023-07-31T07:51:37;19.50;99.90
18189;DHT22;9219;50.396;8.546;2023-07-31T07:54:06;19.40;99.90
18189;DHT22;9219;50.396;8.546;2023-07-31T07:56:38;19.40;99.90
18189;DHT22;9219;50.396;8.546;2023-07-31T07:59:06;19.20;99.90
18189;DHT22;9219;50.396;8.546;2023-07-31T08:04:36;19.00;99.90
18189;DHT22;9219;50.396;8.546;2023-07-31T08:07:04;19.20;99.90
18189;DHT22;9219;50.396;8.546;2023-07-31T08:09:31;19.30;99.90
18189;DHT22;9219;50.396;8.546;2023-07-31T08:11:58;19.30;99.90
18189;DHT22;9219;50.396;8.546;2023-07-31T08:14:29;19.40;99.90
18189;DHT22;9219;50.396;8.546;2023-07-31T08:16:59;19.40;99.90
18189;DHT22;9219;50.396;8.546;2023-07-31T08:19:27;19.50;99.90
18189;DHT22;9219;50.396;8.546;2023-07-31T08:24:48;19.40;99.90
18189;DHT22;9219;50.396;8.546;2023-07-31T08:27:16;19.50;99.90
18189;DHT22;9219;50.396;8.546;2023-07-31T08:29:43;19.50;99.90
18189;DHT22;9219;50.396;8.546;2023-07-31T08:32:10;19.50;99.90
18189;DHT22;9219;50.396;8.546;2023-07-31T08:34:38;19.60;99.90
18189;DHT22;9219;50.396;8.546;2023-07-31T08:37:05;19.70;99.90
18189;DHT22;9219;50.396;8.546;2023-07-31T08:39:33;19.70;99.90
18189;DHT22;9219;50.396;8.546;2023-07-31T08:42:02;19.70;99.90
18189;DHT22;9219;50.396;8.546;2023-07-31T08:44:30;19.90;99.90
18189;DHT22;9219;50.396;8.546;2023-07-31T08:47:21;20.00;99.90
18189;DHT22;9219;50.396;8.546;2023-07-31T08:49:49;19.90;99.90
18189;DHT22;9219;50.396;8.546;2023-07-31T08:52:18;19.90;99.90
18189;DHT22;9219;50.396;8.546;2023-07-31T08:54:45;20.10;99.90
18189;DHT22;9219;50.396;8.546;2023-07-31T08:57:14;20.20;99.90
18189;DHT22;9219;50.396;8.546;2023-07-31T08:59:42;20.30;99.90
18189;DHT22;9219;50.396;8.546;2023-07-31T09:02:10;20.00;99.90
18189;DHT22;9219;50.396;8.546;2023-07-31T09:07:34;20.10;99.90
18189;DHT22;9219;50.396;8.546;2023-07-31T09:10:02;20.00;99.90
18189;DHT22;9219;50.396;8.546;2023-07-31T09:12:29;19.90;99.90
18189;DHT22;9219;50.396;8.546;2023-07-31T09:14:57;19.80;99.90
18189;DHT22;9219;50.396;8.546;2023-07-31T09:17:32;19.90;99.90
18189;DHT22;9219;50.396;8.546;2023-07-31T09:20:13;20.00;99.90
18189;DHT22;9219;50.396;8.546;2023-07-31T09:22:43;20.00;99.90
18189;DHT22;9219;50.396;8.546;2023-07-31T09:30:18;20.10;99.90
18189;DHT22;9219;50.396;8.546;2023-07-31T09:32:47;19.80;99.90
18189;DHT22;9219;50.396;8.546;2023-07-31T09:35:20;19.90;99.90
18189;DHT22;9219;50.396;8.546;2023-07-31T09:37:52;19.70;99.90
18189;DHT22;9219;50.396;8.546;2023-07-31T09:40:27;19.80;99.90
18189;DHT22;9219;50.396;8.546;2023-07-31T09:42:59;19.50;99.90
18189;DHT22;9219;50.396;8.546;2023-07-31T09:45:28;19.40;99.90
18189;DHT22;9219;50.396;8.546;2023-07-31T09:53:11;19.30;99.90
18189;DHT22;9219;50.396;8.546;2023-07-31T09:55:40;19.60;99.90
18189;DHT22;9219;50.396;8.546;2023-07-31T09:58:09;19.60;99.90
18189;DHT22;9219;50.396;8.546;2023-07-31T10:00:37;19.40;99.90
18189;DHT22;9219;50.396;8.546;2023-07-31T10:03:07;19.20;99.90
18189;DHT22;9219;50.396;8.546;2023-07-31T10:05:36;19.10;99.90
18189;DHT22;9219;50.396;8.546;2023-07-31T10:08:07;19.20;99.90
18189;DHT22;9219;50.396;8.546;2023-07-31T10:13:24;19.40;99.90
18189;DHT22;9219;50.396;8.546;2023-07-31T10:15:52;19.40;99.90
18189;DHT22;9219;50.396;8.546;2023-07-31T10:18:20;19.40;99.90
18189;DHT22;9219;50.396;8.546;2023-07-31T10:20:48;19.40;99.90
18189;DHT22;9219;50.396;8.546;2023-07-31T10:23:16;19.50;99.90
18189;DHT22;9219;50.396;8.546;2023-07-31T10:25:44;19.60;99.90
18189;DHT22;9219;50.396;8.546;2023-07-31T10:28:13;19.70;99.90
18189;DHT22;9219;50.396;8.546;2023-07-31T10:34:05;19.70;99.90
18189;DHT22;9219;50.396;8.546;2023-07-31T10:36:35;19.60;99.90
18189;DHT22;9219;50.396;8.546;2023-07-31T10:39:04;19.50;99.90
18189;DHT22;9219;50.396;8.546;2023-07-31T10:41:32;19.80;99.90
18189;DHT22;9219;50.396;8.546;2023-07-31T10:44:00;20.00;99.90
18189;DHT22;9219;50.396;8.546;2023-07-31T10:46:28;20.20;99.90
18189;DHT22;9219;50.396;8.546;2023-07-31T10:49:00;20.40;99.90
18189;DHT22;9219;50.396;8.546;2023-07-31T10:56:38;20.50;99.90
18189;DHT22;9219;50.396;8.546;2023-07-31T10:59:07;20.60;99.90
18189;DHT22;9219;50.396;8.546;2023-07-31T11:01:51;20.50;99.90
18189;DHT22;9219;50.396;8.546;2023-07-31T11:04:23;20.30;99.90
18189;DHT22;9219;50.396;8.546;2023-07-31T11:06:57;20.20;99.90
18189;DHT22;9219;50.396;8.546;2023-07-31T11:09:28;20.10;99.90
18189;DHT22;9219;50.396;8.546;2023-07-31T11:11:58;20.20;99.90
18189;DHT22;9219;50.396;8.546;2023-07-31T11:19:38;20.40;99.90
18189;DHT22;9219;50.396;8.546;2023-07-31T11:22:07;20.30;99.90
18189;DHT22;9219;50.396;8.546;2023-07-31T11:24:35;20.20;99.90
18189;DHT22;9219;50.396;8.546;2023-07-31T11:27:07;20.20;99.90
18189;DHT22;9219;50.396;8.546;2023-07-31T11:29:35;20.40;99.90
18189;DHT22;9219;50.396;8.546;2023-07-31T11:32:04;20.40;99.90
18189;DHT22;9219;50.396;8.546;2023-07-31T11:34:32;20.50;99.90
18189;DHT22;9219;50.396;8.546;2023-07-31T11:40:41;20.60;99.90
18189;DHT22;9219;50.396;8.546;2023-07-31T11:43:09;20.50;99.90
18189;DHT22;9219;50.396;8.546;2023-07-31T11:45:39;20.60;99.90
18189;DHT22;9219;50.396;8.546;2023-07-31T11:48:07;20.50;99.90
18189;DHT22;9219;50.396;8.546;2023-07-31T11:50:36;20.60;99.90
18189;DHT22;9219;50.396;8.546;2023-07-31T11:53:08;20.80;99.90
18189;DHT22;9219;50.396;8.546;2023-07-31T11:55:37;20.80;99.90
18189;DHT22;9219;50.396;8.546;2023-07-31T12:03:14;20.80;99.90
18189;DHT22;9219;50.396;8.546;2023-07-31T12:05:42;21.00;99.90
18189;DHT22;9219;50.396;8.546;2023-07-31T12:08:09;20.90;99.90
18189;DHT22;9219;50.396;8.546;2023-07-31T12:10:38;20.80;99.90
18189;DHT22;9219;50.396;8.546;2023-07-31T12:13:08;20.90;99.90
18189;DHT22;9219;50.396;8.546;2023-07-31T12:15:41;21.00;99.90
18189;DHT22;9219;50.396;8.546;2023-07-31T12:18:11;21.10;99.90
18189;DHT22;9219;50.396;8.546;2023-07-31T12:25:47;21.30;99.90
18189;DHT22;9219;50.396;8.546;2023-07-31T12:28:14;21.10;99.90
18189;DHT22;9219;50.396;8.546;2023-07-31T12:30:42;21.00;99.90
18189;DHT22;9219;50.396;8.546;2023-07-31T12:33:14;20.80;99.90
18189;DHT22;9219;50.396;8.546;2023-07-31T12:35:44;20.70;99.90
18189;DHT22;9219;50.396;8.546;2023-07-31T12:38:12;20.80;99.90
18189;DHT22;9219;50.396;8.546;2023-07-31T12:40:41;20.90;99.90
18189;DHT22;9219;50.396;8.546;2023-07-31T12:45:55;21.20;99.90
18189;DHT22;9219;50.396;8.546;2023-07-31T12:48:23;21.40;99.90
18189;DHT22;9219;50.396;8.546;2023-07-31T12:50:50;21.40;99.90
18189;DHT22;9219;50.396;8.546;2023-07-31T12:53:17;21.30;99.90
18189;DHT22;9219;50.396;8.546;2023-07-31T12:55:44;21.20;99.90
18189;DHT22;9219;50.396;8.546;2023-07-31T12:58:12;21.10;99.90
18189;DHT22;9219;50.396;8.546;2023-07-31T13:00:39;21.40;99.90
18189;DHT22;9219;50.396;8.546;2023-07-31T13:03:07;21.50;99.90
18189;DHT22;9219;50.396;8.546;2023-07-31T13:08:48;21.70;99.90
18189;DHT22;9219;50.396;8.546;2023-07-31T13:11:19;21.80;99.90
18189;DHT22;9219;50.396;8.546;2023-07-31T13:13:46;21.90;99.90
18189;DHT22;9219;50.396;8.546;2023-07-31T13:16:13;21.90;99.90
18189;DHT22;9219;50.396;8.546;2023-07-31T13:18:41;21.80;99.90
18189;DHT22;9219;50.396;8.546;2023-07-31T13:21:08;21.80;99.90
18189;DHT22;9219;50.396;8.546;2023-07-31T13:23:35;21.60;99.90
18189;DHT22;9219;50.396;8.546;2023-07-31T13:31:09;21.90;99.90
18189;DHT22;9219;50.396;8.546;2023-07-31T13:33:39;21.90;99.90
18189;DHT22;9219;50.396;8.546;2023-07-31T13:36:10;21.90;99.90
18189;DHT22;9219;50.396;8.546;2023-07-31T13:38:40;22.20;99.90
18189;DHT22;9219;50.396;8.546;2023-07-31T13:41:07;22.10;99.90
18189;DHT22;9219;50.396;8.546;2023-07-31T13:43:34;22.10;99.90
18189;DHT22;9219;50.396;8.546;2023-07-31T13:46:02;22.10;99.90
18189;DHT22;9219;50.396;8.546;2023-07-31T13:51:22;21.60;99.90
18189;DHT22;9219;50.396;8.546;2023-07-31T13:53:49;21.80;99.90
18189;DHT22;9219;50.396;8.546;2023-07-31T13:56:16;22.00;99.90
18189;DHT22;9219;50.396;8.546;2023-07-31T13:58:44;22.20;99.90
18189;DHT22;9219;50.396;8.546;2023-07-31T14:01:11;22.30;99.90
18189;DHT22;9219;50.396;8.546;2023-07-31T14:03:39;22.20;99.90
18189;DHT22;9219;50.396;8.546;2023-07-31T14:06:06;22.10;99.90
18189;DHT22;9219;50.396;8.546;2023-07-31T14:13:38;22.40;99.90
18189;DHT22;9219;50.396;8.546;2023-07-31T14:16:05;22.60;99.90
18189;DHT22;9219;50.396;8.546;2023-07-31T14:18:33;22.50;99.90
18189;DHT22;9219;50.396;8.546;2023-07-31T14:21:00;22.40;99.90
18189;DHT22;9219;50.396;8.546;2023-07-31T14:23:27;22.30;99.90
18189;DHT22;9219;50.396;8.546;2023-07-31T14:25:54;22.40;99.90
18189;DHT22;9219;50.396;8.546;2023-07-31T14:28:21;22.40;99.90
18189;DHT22;9219;50.396;8.546;2023-07-31T14:30:49;22.60;99.90
18189;DHT22;9219;50.396;8.546;2023-07-31T14:38:21;22.70;99.90
18189;DHT22;9219;50.396;8.546;2023-07-31T14:40:49;22.50;99.90
18189;DHT22;9219;50.396;8.546;2023-07-31T14:43:16;22.60;99.90
18189;DHT22;9219;50.396;8.546;2023-07-31T14:45:45;22.50;99.90
18189;DHT22;9219;50.396;8.546;2023-07-31T14:48:12;22.40;99.90
18189;DHT22;9219;50.396;8.546;2023-07-31T14:50:39;22.60;99.90
18189;DHT22;9219;50.396;8.546;2023-07-31T14:53:06;22.30;99.90
18189;DHT22;9219;50.396;8.546;2023-07-31T14:58:15;22.10;99.90
18189;DHT22;9219;50.396;8.546;2023-07-31T15:00:43;22.10;99.90
18189;DHT22;9219;50.396;8.546;2023-07-31T15:03:10;22.00;99.90
18189;DHT22;9219;50.396;8.546;2023-07-31T15:05:38;22.00;99.90
18189;DHT22;9219;50.396;8.546;2023-07-31T15:08:05;22.10;99.90
18189;DHT22;9219;50.396;8.546;2023-07-31T15:10:34;22.00;99.90
18189;DHT22;9219;50.396;8.546;2023-07-31T15:13:04;22.00;99.90
18189;DHT22;9219;50.396;8.546;2023-07-31T15:15:32;22.10;99.90
18189;DHT22;9219;50.396;8.546;2023-07-31T15:23:18;22.20;99.90
18189;DHT22;9219;50.396;8.546;2023-07-31T15:25:45;22.40;99.90
18189;DHT22;9219;50.396;8.546;2023-07-31T15:28:12;22.50;99.90
18189;DHT22;9219;50.396;8.546;2023-07-31T15:30:39;22.30;99.90
18189;DHT22;9219;50.396;8.546;2023-07-31T15:33:08;22.30;99.90
18189;DHT22;9219;50.396;8.546;2023-07-31T15:35:36;22.40;99.90
18189;DHT22;9219;50.396;8.546;2023-07-31T15:38:03;22.30;99.90
18189;DHT22;9219;50.396;8.546;2023-07-31T15:43:13;22.30;99.90
18189;DHT22;9219;50.396;8.546;2023-07-31T15:45:42;22.10;99.90
18189;DHT22;9219;50.396;8.546;2023-07-31T15:48:09;22.10;99.90
18189;DHT22;9219;50.396;8.546;2023-07-31T15:50:36;22.00;99.90
18189;DHT22;9219;50.396;8.546;2023-07-31T15:53:06;22.00;99.90
18189;DHT22;9219;50.396;8.546;2023-07-31T15:55:33;22.10;99.90
18189;DHT22;9219;50.396;8.546;2023-07-31T15:58:00;22.10;99.90
18189;DHT22;9219;50.396;8.546;2023-07-31T16:03:08;22.00;99.90
18189;DHT22;9219;50.396;8.546;2023-07-31T16:05:35;21.80;99.90
18189;DHT22;9219;50.396;8.546;2023-07-31T16:08:03;22.00;99.90
18189;DHT22;9219;50.396;8.546;2023-07-31T16:10:30;22.00;99.90
18189;DHT22;9219;50.396;8.546;2023-07-31T16:12:57;21.90;99.90
18189;DHT22;9219;50.396;8.546;2023-07-31T16:15:25;21.80;99.90
18189;DHT22;9219;50.396;8.546;2023-07-31T16:17:52;21.80;99.90
18189;DHT22;9219;50.396;8.546;2023-07-31T16:20:23;21.50;99.90
18189;DHT22;9219;50.396;8.546;2023-07-31T16:23:08;21.20;99.90
18189;DHT22;9219;50.396;8.546;2023-07-31T16:25:35;20.80;99.90
18189;DHT22;9219;50.396;8.546;2023-07-31T16:28:02;20.30;99.90
18189;DHT22;9219;50.396;8.546;2023-07-31T16:30:29;20.10;99.90
18189;DHT22;9219;50.396;8.546;2023-07-31T16:32:56;20.20;99.90
18189;DHT22;9219;50.396;8.546;2023-07-31T16:35:24;20.00;99.90
18189;DHT22;9219;50.396;8.546;2023-07-31T16:37:51;19.80;99.90
18189;DHT22;9219;50.396;8.546;2023-07-31T16:43:03;20.00;99.90
18189;DHT22;9219;50.396;8.546;2023-07-31T16:45:30;20.20;99.90
18189;DHT22;9219;50.396;8.546;2023-07-31T16:47:57;20.40;99.90
18189;DHT22;9219;50.396;8.546;2023-07-31T16:50:25;20.40;99.90
18189;DHT22;9219;50.396;8.546;2023-07-31T16:52:53;20.50;99.90
18189;DHT22;9219;50.396;8.546;2023-07-31T16:55:20;20.50;99.90
18189;DHT22;9219;50.396;8.546;2023-07-31T16:57:48;20.50;99.90
18189;DHT22;9219;50.396;8.546;2023-07-31T17:03:45;20.50;99.90
18189;DHT22;9219;50.396;8.546;2023-07-31T17:06:12;20.20;99.90
18189;DHT22;9219;50.396;8.546;2023-07-31T17:08:40;20.20;99.90
18189;DHT22;9219;50.396;8.546;2023-07-31T17:11:07;20.30;99.90
18189;DHT22;9219;50.396;8.546;2023-07-31T17:13:34;20.10;99.90
18189;DHT22;9219;50.396;8.546;2023-07-31T17:16:02;20.20;99.90
18189;DHT22;9219;50.396;8.546;2023-07-31T17:18:29;20.20;99.90
18189;DHT22;9219;50.396;8.546;2023-07-31T17:23:37;20.30;99.90
18189;DHT22;9219;50.396;8.546;2023-07-31T17:26:04;20.20;99.90
18189;DHT22;9219;50.396;8.546;2023-07-31T17:28:32;20.10;99.90
18189;DHT22;9219;50.396;8.546;2023-07-31T17:30:59;20.10;99.90
18189;DHT22;9219;50.396;8.546;2023-07-31T17:33:26;20.10;99.90
18189;DHT22;9219;50.396;8.546;2023-07-31T17:35:54;20.10;99.90
18189;DHT22;9219;50.396;8.546;2023-07-31T17:38:21;19.80;99.90
18189;DHT22;9219;50.396;8.546;2023-07-31T17:44:05;19.90;99.90
18189;DHT22;9219;50.396;8.546;2023-07-31T17:46:33;19.70;99.90
18189;DHT22;9219;50.396;8.546;2023-07-31T17:49:00;19.60;99.90
18189;DHT22;9219;50.396;8.546;2023-07-31T17:51:27;19.50;99.90
18189;DHT22;9219;50.396;8.546;2023-07-31T17:53:54;19.40;99.90
18189;DHT22;9219;50.396;8.546;2023-07-31T17:56:21;19.20;99.90
18189;DHT22;9219;50.396;8.546;2023-07-31T17:58:48;18.90;99.90
18189;DHT22;9219;50.396;8.546;2023-07-31T18:04:34;18.90;99.90
18189;DHT22;9219;50.396;8.546;2023-07-31T18:07:01;18.80;99.90
18189;DHT22;9219;50.396;8.546;2023-07-31T18:09:29;18.80;99.90
18189;DHT22;9219;50.396;8.546;2023-07-31T18:11:56;18.70;99.90
18189;DHT22;9219;50.396;8.546;2023-07-31T18:14:24;18.70;99.90
18189;DHT22;9219;50.396;8.546;2023-07-31T18:16:52;18.70;99.90
18189;DHT22;9219;50.396;8.546;2023-07-31T18:19:19;18.70;99.90
18189;DHT22;9219;50.396;8.546;2023-07-31T18:26:51;18.70;99.90
18189;DHT22;9219;50.396;8.546;2023-07-31T18:29:19;18.80;99.90
18189;DHT22;9219;50.396;8.546;2023-07-31T18:31:46;18.90;99.90
18189;DHT22;9219;50.396;8.546;2023-07-31T18:34:13;18.70;99.90
18189;DHT22;9219;50.396;8.546;2023-07-31T18:36:41;18.80;99.90
18189;DHT22;9219;50.396;8.546;2023-07-31T18:39:09;18.70;99.90
18189;DHT22;9219;50.396;8.546;2023-07-31T18:41:36;18.60;99.90
18189;DHT22;9219;50.396;8.546;2023-07-31T18:47:19;18.50;99.90
18189;DHT22;9219;50.396;8.546;2023-07-31T18:49:47;18.50;99.90
18189;DHT22;9219;50.396;8.546;2023-07-31T18:52:14;18.30;99.90
18189;DHT22;9219;50.396;8.546;2023-07-31T18:54:41;18.40;99.90
18189;DHT22;9219;50.396;8.546;2023-07-31T18:57:09;18.30;99.90
18189;DHT22;9219;50.396;8.546;2023-07-31T18:59:36;18.10;99.90
18189;DHT22;9219;50.396;8.546;2023-07-31T19:02:03;18.20;99.90
18189;DHT22;9219;50.396;8.546;2023-07-31T19:09:39;18.20;99.90